createdAt,value
2023-02-27T00:00:29.614Z,65.70
2023-02-27T00:01:29.634Z,65.59
2023-02-27T00:02:29.611Z,65.59
2023-02-27T00:03:29.622Z,66.01
2023-02-27T00:04:29.580Z,65.80
2023-02-27T00:05:29.569Z,65.80
2023-02-27T00:06:30.023Z,65.80
2023-02-27T00:07:29.553Z,66.12
2023-02-27T00:08:29.561Z,66.43
2023-02-27T00:09:29.536Z,66.53
2023-02-27T00:10:29.507Z,66.53
2023-02-27T00:11:29.868Z,66.12
2023-02-27T00:12:29.508Z,65.91
2023-02-27T00:13:29.473Z,66.22
2023-02-27T00:14:29.454Z,65.80
2023-02-27T00:15:29.452Z,65.59
2023-02-27T00:16:29.498Z,66.01
2023-02-27T00:17:29.435Z,66.12
2023-02-27T00:18:29.433Z,66.14
2023-02-27T00:19:29.421Z,65.91
2023-02-27T00:20:29.398Z,65.91
2023-02-27T00:21:29.398Z,65.94
2023-02-27T00:22:29.378Z,66.14
2023-02-27T00:23:29.395Z,66.14
2023-02-27T00:24:29.360Z,66.36
2023-02-27T00:25:29.363Z,66.25
2023-02-27T00:26:29.333Z,65.94
2023-02-27T00:27:29.338Z,65.62
2023-02-27T00:28:29.324Z,65.94
2023-02-27T00:29:29.337Z,65.83
2023-02-27T00:30:29.321Z,65.94
2023-02-27T00:31:29.753Z,65.62
2023-02-27T00:32:29.356Z,65.73
2023-02-27T00:33:29.283Z,65.83
2023-02-27T00:34:29.283Z,65.83
2023-02-27T00:35:29.244Z,66.04
2023-02-27T00:36:29.216Z,65.73
2023-02-27T00:37:29.220Z,65.41
2023-02-27T00:38:29.205Z,65.41
2023-02-27T00:39:29.188Z,65.31
2023-02-27T00:40:29.210Z,65.41
2023-02-27T00:41:29.311Z,65.52
2023-02-27T00:42:29.164Z,65.31
2023-02-27T00:43:29.160Z,65.20
2023-02-27T00:44:29.150Z,65.09
2023-02-27T00:45:29.151Z,65.20
2023-02-27T00:46:29.171Z,65.31
2023-02-27T00:47:29.123Z,65.20
2023-02-27T00:48:29.103Z,65.09
2023-02-27T00:49:29.118Z,64.99
2023-02-27T00:50:29.088Z,65.09
2023-02-27T00:51:29.083Z,64.99
2023-02-27T00:52:29.106Z,64.96
2023-02-27T00:53:29.046Z,64.99
2023-02-27T00:54:29.037Z,65.09
2023-02-27T00:55:29.043Z,65.20
2023-02-27T00:56:29.031Z,65.41
2023-02-27T00:57:29.071Z,65.52
2023-02-27T00:58:29.042Z,65.65
2023-02-27T00:59:28.987Z,65.65
2023-02-27T01:00:29.042Z,65.86
2023-02-27T01:01:29.242Z,65.97
2023-02-27T01:02:29.003Z,66.17
2023-02-27T01:03:28.976Z,66.07
2023-02-27T01:04:28.927Z,66.39
2023-02-27T01:05:28.922Z,66.60
2023-02-27T01:06:28.924Z,66.60
2023-02-27T01:07:28.931Z,66.81
2023-02-27T01:08:28.903Z,66.94
2023-02-27T01:09:28.919Z,66.84
2023-02-27T01:10:28.883Z,66.94
2023-02-27T01:11:28.884Z,67.05
2023-02-27T01:12:28.892Z,67.26
2023-02-27T01:13:28.859Z,67.36
2023-02-27T01:14:29.339Z,67.15
2023-02-27T01:15:28.840Z,67.05
2023-02-27T01:16:28.899Z,67.15
2023-02-27T01:17:28.816Z,67.05
2023-02-27T01:18:28.789Z,67.05
2023-02-27T01:19:28.787Z,67.18
2023-02-27T01:20:28.797Z,67.26
2023-02-27T01:21:29.102Z,67.15
2023-02-27T01:22:28.759Z,67.15
2023-02-27T01:23:28.768Z,67.05
2023-02-27T01:24:28.749Z,66.73
2023-02-27T01:25:28.747Z,66.84
2023-02-27T01:26:28.757Z,66.94
2023-02-27T01:27:28.731Z,66.84
2023-02-27T01:28:28.708Z,66.94
2023-02-27T01:29:28.702Z,66.94
2023-02-27T01:30:28.725Z,67.05
2023-02-27T01:31:29.147Z,67.05
2023-02-27T01:32:28.863Z,67.15
2023-02-27T01:33:28.671Z,67.36
2023-02-27T01:34:28.641Z,67.47
2023-02-27T01:35:28.631Z,67.47
2023-02-27T01:36:28.616Z,67.60
2023-02-27T01:37:28.634Z,67.60
2023-02-27T01:38:28.619Z,67.82
2023-02-27T01:39:28.604Z,68.13
2023-02-27T01:40:28.567Z,68.13
2023-02-27T01:41:28.746Z,68.13
2023-02-27T01:42:28.555Z,68.13
2023-02-27T01:43:28.537Z,68.13
2023-02-27T01:44:28.526Z,68.13
2023-02-27T01:45:28.692Z,68.13
2023-02-27T01:46:28.515Z,68.13
2023-02-27T01:47:28.514Z,68.34
2023-02-27T01:48:28.511Z,68.24
2023-02-27T01:49:28.503Z,67.92
2023-02-27T01:50:28.517Z,67.82
2023-02-27T01:51:28.816Z,67.82
2023-02-27T01:52:28.456Z,67.92
2023-02-27T01:53:28.468Z,67.92
2023-02-27T01:54:28.432Z,68.02
2023-02-27T01:55:28.416Z,68.02
2023-02-27T01:56:28.436Z,67.92
2023-02-27T01:57:28.396Z,67.82
2023-02-27T01:58:28.421Z,67.50
2023-02-27T01:59:28.382Z,67.60
2023-02-27T02:00:28.372Z,67.50
2023-02-27T02:01:28.827Z,67.29
2023-02-27T02:02:28.403Z,67.05
2023-02-27T02:03:28.344Z,67.15
2023-02-27T02:04:28.351Z,67.15
2023-02-27T02:05:28.328Z,67.15
2023-02-27T02:06:28.303Z,67.05
2023-02-27T02:07:28.696Z,66.84
2023-02-27T02:08:28.304Z,66.63
2023-02-27T02:09:28.284Z,66.73
2023-02-27T02:10:28.265Z,66.94
2023-02-27T02:11:28.595Z,66.84
2023-02-27T02:12:28.257Z,66.84
2023-02-27T02:13:28.258Z,66.73
2023-02-27T02:14:28.232Z,66.76
2023-02-27T02:15:28.211Z,66.84
2023-02-27T02:16:28.271Z,66.94
2023-02-27T02:17:28.188Z,66.87
2023-02-27T02:18:28.188Z,66.52
2023-02-27T02:19:28.663Z,66.52
2023-02-27T02:20:28.188Z,66.42
2023-02-27T02:21:28.475Z,66.13
2023-02-27T02:22:28.155Z,66.00
2023-02-27T02:23:28.144Z,66.13
2023-02-27T02:24:28.147Z,66.31
2023-02-27T02:25:28.158Z,66.13
2023-02-27T02:26:31.044Z,66.13
2023-02-27T02:27:28.090Z,66.24
2023-02-27T02:28:28.084Z,66.34
2023-02-27T02:29:28.074Z,66.34
2023-02-27T02:30:28.212Z,66.45
2023-02-27T02:31:28.457Z,66.45
2023-02-27T02:32:28.119Z,66.45
2023-02-27T02:33:28.035Z,66.45
2023-02-27T02:34:28.031Z,66.55
2023-02-27T02:35:28.005Z,66.55
2023-02-27T02:36:28.002Z,66.45
2023-02-27T02:37:28.011Z,66.55
2023-02-27T02:38:27.975Z,66.66
2023-02-27T02:39:27.976Z,66.66
2023-02-27T02:40:27.970Z,66.66
2023-02-27T02:41:28.270Z,66.66
2023-02-27T02:42:27.936Z,66.76
2023-02-27T02:43:27.973Z,66.87
2023-02-27T02:44:27.930Z,66.87
2023-02-27T02:45:27.923Z,66.76
2023-02-27T02:46:27.905Z,66.66
2023-02-27T02:47:27.898Z,66.66
2023-02-27T02:48:27.900Z,66.66
2023-02-27T02:49:27.918Z,66.76
2023-02-27T02:50:27.879Z,66.66
2023-02-27T02:51:28.184Z,66.66
2023-02-27T02:52:27.836Z,66.66
2023-02-27T02:53:36.204Z,66.87
2023-02-27T02:54:27.825Z,66.87
2023-02-27T02:55:27.841Z,66.97
2023-02-27T02:56:27.792Z,67.08
2023-02-27T02:57:27.791Z,67.08
2023-02-27T02:58:27.800Z,67.08
2023-02-27T02:59:27.784Z,67.08
2023-02-27T03:00:27.774Z,67.08
2023-02-27T03:01:28.153Z,66.97
2023-02-27T03:02:27.746Z,66.87
2023-02-27T03:03:27.730Z,66.87
2023-02-27T03:04:27.759Z,66.87
2023-02-27T03:05:27.722Z,67.00
2023-02-27T03:06:27.712Z,67.11
2023-02-27T03:07:27.748Z,67.00
2023-02-27T03:08:27.668Z,67.11
2023-02-27T03:09:28.068Z,67.32
2023-02-27T03:10:27.667Z,67.53
2023-02-27T03:11:28.085Z,67.63
2023-02-27T03:12:27.630Z,67.63
2023-02-27T03:13:27.627Z,67.77
2023-02-27T03:14:27.610Z,67.95
2023-02-27T03:15:27.644Z,67.95
2023-02-27T03:16:27.628Z,67.95
2023-02-27T03:17:27.603Z,67.95
2023-02-27T03:18:27.586Z,67.95
2023-02-27T03:19:27.583Z,67.95
2023-02-27T03:20:27.550Z,67.85
2023-02-27T03:21:28.321Z,67.74
2023-02-27T03:22:27.527Z,67.85
2023-02-27T03:23:27.533Z,67.85
2023-02-27T03:24:27.528Z,67.95
2023-02-27T03:25:27.513Z,67.85
2023-02-27T03:26:27.496Z,68.05
2023-02-27T03:27:27.524Z,68.16
2023-02-27T03:28:27.475Z,68.19
2023-02-27T03:29:27.472Z,68.08
2023-02-27T03:30:27.495Z,68.19
2023-02-27T03:31:27.966Z,68.30
2023-02-27T03:32:27.472Z,68.40
2023-02-27T03:33:27.444Z,68.30
2023-02-27T03:34:27.403Z,68.30
2023-02-27T03:35:27.427Z,68.19
2023-02-27T03:36:27.402Z,68.08
2023-02-27T03:37:27.394Z,68.08
2023-02-27T03:38:27.363Z,68.08
2023-02-27T03:39:27.399Z,67.98
2023-02-27T03:40:27.358Z,68.19
2023-02-27T03:41:27.789Z,68.30
2023-02-27T03:42:27.330Z,68.30
2023-02-27T03:43:27.326Z,68.30
2023-02-27T03:44:27.345Z,68.19
2023-02-27T03:45:27.314Z,68.19
2023-02-27T03:46:27.324Z,68.08
2023-02-27T03:47:27.306Z,67.98
2023-02-27T03:48:27.256Z,68.08
2023-02-27T03:49:27.263Z,68.08
2023-02-27T03:50:27.283Z,68.19
2023-02-27T03:51:27.663Z,68.40
2023-02-27T03:52:27.227Z,68.51
2023-02-27T03:53:27.219Z,68.51
2023-02-27T03:54:27.220Z,68.61
2023-02-27T03:55:27.224Z,68.75
2023-02-27T03:56:27.197Z,68.75
2023-02-27T03:57:27.194Z,68.85
2023-02-27T03:58:27.171Z,68.75
2023-02-27T03:59:27.158Z,68.96
2023-02-27T04:00:27.166Z,68.96
2023-02-27T04:01:27.546Z,68.96
2023-02-27T04:02:27.195Z,68.96
2023-02-27T04:03:27.118Z,68.96
2023-02-27T04:04:27.102Z,69.07
2023-02-27T04:05:27.116Z,69.17
2023-02-27T04:06:27.089Z,69.07
2023-02-27T04:07:27.104Z,68.96
2023-02-27T04:08:27.056Z,68.85
2023-02-27T04:09:27.056Z,68.85
2023-02-27T04:10:27.034Z,68.96
2023-02-27T04:11:27.372Z,68.85
2023-02-27T04:12:27.029Z,68.85
2023-02-27T04:13:27.115Z,68.65
2023-02-27T04:14:27.005Z,68.65
2023-02-27T04:15:27.013Z,68.75
2023-02-27T04:16:27.048Z,68.65
2023-02-27T04:17:26.991Z,68.54
2023-02-27T04:18:26.972Z,68.54
2023-02-27T04:19:26.988Z,68.65
2023-02-27T04:20:26.931Z,68.75
2023-02-27T04:21:27.295Z,68.75
2023-02-27T04:22:26.909Z,68.65
2023-02-27T04:23:26.904Z,68.54
2023-02-27T04:24:26.892Z,68.43
2023-02-27T04:25:27.106Z,68.54
2023-02-27T04:26:26.878Z,68.65
2023-02-27T04:27:26.878Z,68.43
2023-02-27T04:28:26.878Z,68.54
2023-02-27T04:29:26.870Z,68.75
2023-02-27T04:30:26.865Z,68.85
2023-02-27T04:31:27.389Z,68.96
2023-02-27T04:32:26.922Z,68.96
2023-02-27T04:33:26.833Z,68.96
2023-02-27T04:34:26.818Z,68.85
2023-02-27T04:35:26.794Z,68.85
2023-02-27T04:36:26.784Z,68.85
2023-02-27T04:37:26.800Z,68.75
2023-02-27T04:38:26.779Z,68.75
2023-02-27T04:39:26.771Z,68.65
2023-02-27T04:40:26.754Z,68.75
2023-02-27T04:41:27.165Z,68.75
2023-02-27T04:42:26.741Z,68.85
2023-02-27T04:43:26.744Z,68.75
2023-02-27T04:44:26.693Z,68.85
2023-02-27T04:45:26.729Z,68.85
2023-02-27T04:46:26.722Z,68.96
2023-02-27T04:47:26.683Z,69.07
2023-02-27T04:48:26.663Z,69.07
2023-02-27T04:49:26.685Z,69.07
2023-02-27T04:50:26.644Z,69.07
2023-02-27T04:51:26.947Z,69.07
2023-02-27T04:52:26.631Z,69.07
2023-02-27T04:53:26.635Z,68.96
2023-02-27T04:54:26.622Z,68.85
2023-02-27T04:55:26.637Z,68.85
2023-02-27T04:56:26.593Z,68.65
2023-02-27T04:57:26.590Z,68.65
2023-02-27T04:58:26.572Z,68.75
2023-02-27T04:59:26.548Z,68.75
2023-02-27T05:00:26.535Z,68.65
2023-02-27T05:01:26.979Z,68.75
2023-02-27T05:02:26.616Z,68.75
2023-02-27T05:03:26.524Z,68.85
2023-02-27T05:04:26.491Z,68.85
2023-02-27T05:05:26.498Z,68.85
2023-02-27T05:06:26.480Z,68.96
2023-02-27T05:07:26.507Z,69.07
2023-02-27T05:08:26.484Z,69.07
2023-02-27T05:09:26.468Z,69.27
2023-02-27T05:10:26.458Z,69.38
2023-02-27T05:11:26.865Z,69.49
2023-02-27T05:12:26.448Z,69.41
2023-02-27T05:13:26.416Z,69.62
2023-02-27T05:14:26.401Z,69.73
2023-02-27T05:15:26.432Z,69.94
2023-02-27T05:16:26.437Z,70.15
2023-02-27T05:17:26.379Z,70.25
2023-02-27T05:18:26.401Z,70.36
2023-02-27T05:19:26.376Z,70.50
2023-02-27T05:20:28.386Z,70.60
2023-02-27T05:21:26.716Z,70.71
2023-02-27T05:22:26.329Z,70.81
2023-02-27T05:23:26.322Z,70.81
2023-02-27T05:24:26.317Z,70.71
2023-02-27T05:25:26.286Z,70.81
2023-02-27T05:26:26.280Z,70.81
2023-02-27T05:27:26.277Z,70.81
2023-02-27T05:28:26.246Z,70.92
2023-02-27T05:29:26.251Z,70.81
2023-02-27T05:30:26.266Z,70.78
2023-02-27T05:31:26.647Z,70.81
2023-02-27T05:32:26.273Z,71.03
2023-02-27T05:33:26.242Z,71.03
2023-02-27T05:34:26.201Z,71.03
2023-02-27T05:35:28.931Z,71.03
2023-02-27T05:36:26.225Z,70.92
2023-02-27T05:37:26.172Z,70.92
2023-02-27T05:38:26.173Z,71.03
2023-02-27T05:39:26.140Z,71.03
2023-02-27T05:40:26.131Z,71.03
2023-02-27T05:41:26.494Z,71.03
2023-02-27T05:42:26.143Z,71.23
2023-02-27T05:43:26.118Z,71.45
2023-02-27T05:44:26.101Z,71.45
2023-02-27T05:45:26.093Z,71.58
2023-02-27T05:46:26.084Z,71.76
2023-02-27T05:47:26.088Z,71.76
2023-02-27T05:48:26.081Z,71.76
2023-02-27T05:49:26.039Z,71.66
2023-02-27T05:50:26.039Z,71.55
2023-02-27T05:51:26.374Z,71.55
2023-02-27T05:52:26.009Z,71.55
2023-02-27T05:53:26.005Z,71.55
2023-02-27T05:54:26.016Z,71.55
2023-02-27T05:55:25.987Z,71.45
2023-02-27T05:56:26.411Z,71.55
2023-02-27T05:57:25.984Z,71.34
2023-02-27T05:58:25.950Z,71.23
2023-02-27T05:59:25.957Z,71.23
2023-02-27T06:00:25.973Z,71.34
2023-02-27T06:01:25.929Z,71.34
2023-02-27T06:02:25.959Z,71.34
2023-02-27T06:03:26.060Z,71.34
2023-02-27T06:04:25.899Z,71.34
2023-02-27T06:05:25.881Z,71.34
2023-02-27T06:06:26.196Z,71.34
2023-02-27T06:07:25.873Z,71.10
2023-02-27T06:08:25.859Z,71.10
2023-02-27T06:09:25.836Z,70.99
2023-02-27T06:10:25.828Z,70.99
2023-02-27T06:11:25.875Z,70.89
2023-02-27T06:12:25.834Z,70.99
2023-02-27T06:13:25.826Z,70.99
2023-02-27T06:14:25.802Z,71.10
2023-02-27T06:15:25.781Z,71.20
2023-02-27T06:16:26.318Z,71.10
2023-02-27T06:17:25.768Z,70.89
2023-02-27T06:18:25.803Z,70.78
2023-02-27T06:19:25.728Z,70.78
2023-02-27T06:20:25.737Z,70.78
2023-02-27T06:21:25.709Z,70.89
2023-02-27T06:22:25.710Z,70.99
2023-02-27T06:23:25.692Z,71.10
2023-02-27T06:24:25.724Z,71.10
2023-02-27T06:25:25.675Z,71.10
2023-02-27T06:26:26.160Z,71.20
2023-02-27T06:27:25.676Z,71.10
2023-02-27T06:28:25.664Z,71.20
2023-02-27T06:29:25.679Z,71.20
2023-02-27T06:30:25.638Z,71.20
2023-02-27T06:31:25.626Z,71.20
2023-02-27T06:32:25.683Z,71.20
2023-02-27T06:33:25.596Z,71.10
2023-02-27T06:34:25.599Z,71.10
2023-02-27T06:35:25.627Z,71.20
2023-02-27T06:36:25.857Z,71.31
2023-02-27T06:37:25.549Z,71.52
2023-02-27T06:38:25.531Z,71.73
2023-02-27T06:39:25.519Z,72.05
2023-02-27T06:40:25.517Z,72.05
2023-02-27T06:41:25.516Z,72.25
2023-02-27T06:42:25.500Z,72.15
2023-02-27T06:43:25.491Z,72.25
2023-02-27T06:44:25.498Z,72.25
2023-02-27T06:45:25.485Z,72.15
2023-02-27T06:46:25.892Z,72.15
2023-02-27T06:47:25.464Z,72.22
2023-02-27T06:48:25.438Z,72.22
2023-02-27T06:49:25.415Z,72.12
2023-02-27T06:50:25.417Z,72.02
2023-02-27T06:51:25.410Z,71.88
2023-02-27T06:52:25.407Z,71.77
2023-02-27T06:53:25.433Z,71.66
2023-02-27T06:54:25.385Z,71.88
2023-02-27T06:55:25.372Z,71.88
2023-02-27T06:56:25.678Z,71.77
2023-02-27T06:57:25.347Z,71.77
2023-02-27T06:58:25.348Z,71.88
2023-02-27T06:59:25.348Z,71.84
2023-02-27T07:00:25.302Z,71.63
2023-02-27T07:01:25.342Z,71.53
2023-02-27T07:02:25.296Z,71.42
2023-02-27T07:03:25.282Z,71.42
2023-02-27T07:04:25.288Z,71.42
2023-02-27T07:05:26.018Z,71.31
2023-02-27T07:07:32.697Z,71.18
2023-02-27T07:07:41.096Z,70.97
2023-02-27T07:08:25.241Z,71.08
2023-02-27T07:09:25.241Z,70.97
2023-02-27T07:10:25.220Z,70.76
2023-02-27T07:11:25.240Z,70.65
2023-02-27T07:12:25.210Z,70.62
2023-02-27T07:13:25.193Z,70.62
2023-02-27T07:14:25.182Z,70.73
2023-02-27T07:15:25.153Z,70.51
2023-02-27T07:16:25.461Z,70.17
2023-02-27T07:17:25.174Z,70.17
2023-02-27T07:18:25.130Z,70.17
2023-02-27T07:19:25.143Z,70.06
2023-02-27T07:20:25.141Z,70.06
2023-02-27T07:21:25.122Z,69.85
2023-02-27T07:22:25.121Z,69.82
2023-02-27T07:23:25.096Z,69.71
2023-02-27T07:24:25.076Z,69.51
2023-02-27T07:25:25.068Z,69.26
2023-02-27T07:26:25.234Z,68.74
2023-02-27T07:27:25.041Z,68.63
2023-02-27T07:28:25.074Z,68.63
2023-02-27T07:29:25.022Z,68.32
2023-02-27T07:30:25.011Z,68.32
2023-02-27T07:31:25.603Z,67.80
2023-02-27T07:32:25.011Z,67.80
2023-02-27T07:33:25.002Z,67.55
2023-02-27T07:34:25.036Z,67.55
2023-02-27T07:35:24.970Z,67.03
2023-02-27T07:36:25.249Z,67.35
2023-02-27T07:37:27.622Z,67.14
2023-02-27T07:38:24.952Z,66.93
2023-02-27T07:39:24.920Z,67.00
2023-02-27T07:40:24.937Z,66.58
2023-02-27T07:41:30.746Z,67.00
2023-02-27T07:42:24.900Z,66.16
2023-02-27T07:43:24.891Z,66.37
2023-02-27T07:44:24.872Z,65.95
2023-02-27T07:45:24.896Z,65.32
2023-02-27T07:46:24.953Z,65.30
2023-02-27T07:47:24.860Z,65.30
2023-02-27T07:48:24.856Z,65.19
2023-02-27T07:49:24.834Z,64.98
2023-02-27T07:50:24.837Z,64.53
2023-02-27T07:51:24.848Z,64.01
2023-02-27T07:52:24.813Z,64.11
2023-02-27T07:53:24.792Z,63.79
2023-02-27T07:54:24.797Z,63.69
2023-02-27T07:55:24.782Z,63.69
2023-02-27T07:56:24.786Z,63.28
2023-02-27T07:57:24.794Z,63.69
2023-02-27T07:58:24.761Z,63.98
2023-02-27T07:59:24.746Z,63.67
2023-02-27T08:00:24.731Z,62.62
2023-02-27T08:01:24.719Z,62.17
2023-02-27T08:02:24.764Z,62.07
2023-02-27T08:03:24.734Z,62.48
2023-02-27T08:04:24.705Z,62.69
2023-02-27T08:05:24.674Z,62.24
2023-02-27T08:06:24.701Z,62.04
2023-02-27T08:07:24.650Z,61.83
2023-02-27T08:08:24.683Z,61.83
2023-02-27T08:09:24.626Z,61.30
2023-02-27T08:10:24.632Z,61.61
2023-02-27T08:11:24.732Z,62.04
2023-02-27T08:12:24.619Z,62.45
2023-02-27T08:13:55.625Z,62.56
2023-02-27T08:14:24.638Z,62.24
2023-02-27T08:15:24.739Z,61.72
2023-02-27T08:16:24.708Z,61.10
2023-02-27T08:17:24.558Z,60.13
2023-02-27T08:18:24.553Z,60.44
2023-02-27T08:19:24.536Z,60.86
2023-02-27T08:20:24.586Z,61.07
2023-02-27T08:21:24.736Z,61.27
2023-02-27T08:22:24.521Z,62.04
2023-02-27T08:23:24.498Z,62.56
2023-02-27T08:24:24.483Z,62.45
2023-02-27T08:25:24.473Z,62.14
2023-02-27T08:26:24.495Z,61.83
2023-02-27T08:27:24.447Z,61.83
2023-02-27T08:28:24.450Z,61.83
2023-02-27T08:29:24.435Z,61.61
2023-02-27T08:30:24.422Z,61.51
2023-02-27T08:31:24.480Z,61.83
2023-02-27T08:32:24.459Z,62.35
2023-02-27T08:33:24.412Z,62.17
2023-02-27T08:34:24.399Z,62.80
2023-02-27T08:35:24.377Z,62.80
2023-02-27T08:36:24.443Z,62.48
2023-02-27T08:37:24.405Z,62.59
2023-02-27T08:38:26.384Z,62.80
2023-02-27T08:39:24.358Z,63.11
2023-02-27T08:40:24.353Z,62.69
2023-02-27T08:41:24.323Z,62.59
2023-02-27T08:42:26.605Z,62.82
2023-02-27T08:43:24.322Z,62.90
2023-02-27T08:44:24.302Z,62.17
2023-02-27T08:45:24.330Z,61.96
2023-02-27T08:46:24.497Z,62.17
2023-02-27T08:47:24.285Z,61.65
2023-02-27T08:48:24.264Z,60.91
2023-02-27T08:49:24.270Z,59.74
2023-02-27T08:50:24.311Z,59.53
2023-02-27T08:51:24.213Z,59.76
2023-02-27T08:52:25.074Z,59.74
2023-02-27T08:53:24.198Z,59.53
2023-02-27T08:54:24.219Z,59.53
2023-02-27T08:55:24.191Z,59.53
2023-02-27T08:56:24.433Z,59.31
2023-02-27T08:57:24.167Z,59.00
2023-02-27T08:58:24.168Z,59.31
2023-02-27T08:59:24.161Z,59.74
2023-02-27T09:00:24.306Z,59.94
2023-02-27T09:01:24.164Z,59.42
2023-02-27T09:02:24.165Z,59.00
2023-02-27T09:03:24.100Z,58.69
2023-02-27T09:04:24.110Z,58.45
2023-02-27T09:05:24.087Z,58.45
2023-02-27T09:06:26.236Z,58.45
2023-02-27T09:07:24.073Z,58.24
2023-02-27T09:08:24.060Z,58.66
2023-02-27T09:09:24.039Z,58.76
2023-02-27T09:10:24.077Z,58.56
2023-02-27T09:11:24.019Z,58.35
2023-02-27T09:12:24.055Z,58.32
2023-02-27T09:13:24.009Z,58.11
2023-02-27T09:14:24.017Z,57.80
2023-02-27T09:15:23.980Z,57.90
2023-02-27T09:16:24.014Z,57.70
2023-02-27T09:17:23.959Z,57.70
2023-02-27T09:18:23.972Z,57.80
2023-02-27T09:19:23.961Z,58.32
2023-02-27T09:20:23.949Z,58.32
2023-02-27T09:21:23.918Z,58.64
2023-02-27T09:22:23.908Z,58.11
2023-02-27T09:23:23.912Z,58.01
2023-02-27T09:24:23.938Z,58.01
2023-02-27T09:25:23.882Z,57.77
2023-02-27T09:26:39.354Z,57.87
2023-02-27T09:27:23.882Z,58.19
2023-02-27T09:28:23.858Z,58.09
2023-02-27T09:29:24.417Z,57.46
2023-02-27T09:30:23.841Z,57.35
2023-02-27T09:31:23.903Z,57.67
2023-02-27T09:32:23.937Z,57.64
2023-02-27T09:33:23.802Z,57.54
2023-02-27T09:34:23.795Z,57.33
2023-02-27T09:35:23.819Z,57.43
2023-02-27T09:36:23.782Z,57.43
2023-02-27T09:37:23.753Z,57.12
2023-02-27T09:38:23.755Z,57.12
2023-02-27T09:39:23.755Z,57.22
2023-02-27T09:40:23.756Z,57.33
2023-02-27T09:41:23.760Z,57.12
2023-02-27T09:42:23.724Z,57.64
2023-02-27T09:43:23.766Z,57.22
2023-02-27T09:44:36.484Z,56.91
2023-02-27T09:45:23.702Z,56.88
2023-02-27T09:46:23.679Z,56.88
2023-02-27T09:47:23.690Z,56.99
2023-02-27T09:48:23.656Z,56.88
2023-02-27T09:49:23.643Z,56.99
2023-02-27T09:50:23.634Z,57.30
2023-02-27T09:51:23.620Z,57.20
2023-02-27T09:52:23.608Z,56.99
2023-02-27T09:53:23.617Z,57.30
2023-02-27T09:54:23.586Z,57.40
2023-02-27T09:55:23.598Z,56.99
2023-02-27T09:56:23.577Z,56.57
2023-02-27T09:57:23.580Z,56.26
2023-02-27T09:58:23.586Z,56.05
2023-02-27T09:59:23.538Z,56.26
2023-02-27T10:00:23.526Z,56.05
2023-02-27T10:01:23.514Z,56.05
2023-02-27T10:02:23.545Z,55.74
2023-02-27T10:03:23.539Z,55.84
2023-02-27T10:04:23.535Z,56.05
2023-02-27T10:05:23.500Z,56.68
2023-02-27T10:06:23.489Z,56.36
2023-02-27T10:07:23.476Z,55.94
2023-02-27T10:08:23.472Z,56.05
2023-02-27T10:09:23.482Z,56.57
2023-02-27T10:10:23.453Z,56.78
2023-02-27T10:11:23.430Z,56.15
2023-02-27T10:12:23.432Z,55.82
2023-02-27T10:13:23.395Z,55.29
2023-02-27T10:14:23.395Z,55.40
2023-02-27T10:15:23.403Z,55.60
2023-02-27T10:16:23.432Z,55.60
2023-02-27T10:17:23.375Z,54.98
2023-02-27T10:18:27.605Z,54.57
2023-02-27T10:19:23.361Z,54.77
2023-02-27T10:20:23.385Z,53.83
2023-02-27T10:21:23.328Z,53.63
2023-02-27T10:22:23.332Z,53.52
2023-02-27T10:23:23.310Z,53.94
2023-02-27T10:24:23.306Z,54.04
2023-02-27T10:25:31.138Z,54.14
2023-02-27T10:26:23.316Z,54.46
2023-02-27T10:27:23.266Z,54.64
2023-02-27T10:28:23.256Z,55.06
2023-02-27T10:29:23.239Z,54.64
2023-02-27T10:30:29.270Z,53.91
2023-02-27T10:31:23.240Z,53.81
2023-02-27T10:32:23.440Z,53.50
2023-02-27T10:33:23.209Z,53.08
2023-02-27T10:34:23.182Z,52.87
2023-02-27T10:35:23.200Z,52.97
2023-02-27T10:36:33.510Z,52.35
2023-02-27T10:37:23.185Z,52.87
2023-02-27T10:38:23.181Z,53.08
2023-02-27T10:39:23.162Z,52.87
2023-02-27T10:40:23.164Z,53.39
2023-02-27T10:41:23.133Z,53.26
2023-02-27T10:42:23.125Z,52.74
2023-02-27T10:43:23.104Z,52.74
2023-02-27T10:44:23.080Z,52.95
2023-02-27T10:45:23.085Z,52.74
2023-02-27T10:46:23.182Z,52.95
2023-02-27T10:47:23.199Z,52.95
2023-02-27T10:48:23.052Z,52.64
2023-02-27T10:49:23.044Z,53.34
2023-02-27T10:50:23.026Z,53.03
2023-02-27T10:51:23.091Z,52.72
2023-02-27T10:52:23.020Z,52.82
2023-02-27T10:53:23.036Z,52.82
2023-02-27T10:54:23.021Z,52.72
2023-02-27T10:55:22.993Z,52.40
2023-02-27T10:56:22.984Z,51.99
2023-02-27T10:57:23.019Z,52.59
2023-02-27T10:58:22.955Z,52.17
2023-02-27T10:59:22.957Z,52.38
2023-02-27T11:00:22.938Z,52.80
2023-02-27T11:01:23.040Z,51.97
2023-02-27T11:02:22.907Z,51.65
2023-02-27T11:03:22.952Z,51.54
2023-02-27T11:04:22.932Z,51.03
2023-02-27T11:05:22.892Z,50.92
2023-02-27T11:06:22.889Z,50.71
2023-02-27T11:07:22.857Z,50.82
2023-02-27T11:08:22.843Z,50.82
2023-02-27T11:09:22.873Z,50.92
2023-02-27T11:10:22.822Z,51.23
2023-02-27T11:11:22.825Z,51.54
2023-02-27T11:12:22.795Z,51.65
2023-02-27T11:13:22.809Z,51.65
2023-02-27T11:14:22.795Z,51.44
2023-02-27T11:15:22.837Z,51.44
2023-02-27T11:16:22.777Z,51.44
2023-02-27T11:17:22.777Z,51.76
2023-02-27T11:18:22.745Z,51.23
2023-02-27T11:19:22.751Z,51.13
2023-02-27T11:20:22.729Z,50.82
2023-02-27T11:21:23.250Z,50.20
2023-02-27T11:22:22.708Z,50.51
2023-02-27T11:23:22.727Z,50.61
2023-02-27T11:24:22.707Z,51.03
2023-02-27T11:25:22.672Z,50.82
2023-02-27T11:26:22.661Z,51.13
2023-02-27T11:27:22.676Z,51.13
2023-02-27T11:28:22.644Z,51.03
2023-02-27T11:29:22.634Z,50.82
2023-02-27T11:30:22.625Z,51.44
2023-02-27T11:31:22.664Z,50.71
2023-02-27T11:32:22.653Z,51.03
2023-02-27T11:33:22.642Z,49.99
2023-02-27T11:34:22.589Z,50.07
2023-02-27T11:35:22.588Z,50.30
2023-02-27T11:36:22.608Z,51.00
2023-02-27T11:37:22.557Z,51.00
2023-02-27T11:38:22.542Z,50.48
2023-02-27T11:39:22.584Z,50.48
2023-02-27T11:40:22.538Z,50.59
2023-02-27T11:41:22.521Z,50.56
2023-02-27T11:42:22.536Z,50.35
2023-02-27T11:43:22.507Z,50.46
2023-02-27T11:44:50.651Z,50.25
2023-02-27T11:46:14.672Z,49.84
2023-02-27T11:46:51.400Z,49.29
2023-02-27T11:47:22.504Z,48.88
2023-02-27T11:48:22.457Z,48.15
2023-02-27T11:49:22.424Z,48.25
2023-02-27T11:50:22.412Z,48.05
2023-02-27T11:51:22.424Z,47.83
2023-02-27T11:52:22.383Z,48.25
2023-02-27T11:53:22.422Z,47.63
2023-02-27T11:54:22.372Z,47.83
2023-02-27T11:55:22.371Z,48.25
2023-02-27T11:56:22.358Z,48.05
2023-02-27T11:57:22.357Z,48.57
2023-02-27T11:58:22.328Z,48.13
2023-02-27T11:59:22.381Z,47.63
2023-02-27T12:00:22.312Z,48.05
2023-02-27T12:01:22.311Z,48.88
2023-02-27T12:02:22.346Z,49.06
2023-02-27T12:03:22.273Z,48.54
2023-02-27T12:04:22.334Z,48.75
2023-02-27T12:05:22.296Z,48.44
2023-02-27T12:06:22.242Z,48.23
2023-02-27T12:07:22.246Z,47.71
2023-02-27T12:08:22.246Z,47.30
2023-02-27T12:09:22.229Z,46.78
2023-02-27T12:10:22.203Z,46.36
2023-02-27T12:11:22.211Z,46.46
2023-02-27T12:12:22.190Z,46.55
2023-02-27T12:13:22.185Z,46.86
2023-02-27T12:14:22.208Z,47.27
2023-02-27T12:15:22.166Z,46.44
2023-02-27T12:16:22.245Z,47.27
2023-02-27T12:17:22.130Z,46.96
2023-02-27T12:18:22.111Z,46.21
2023-02-27T12:19:22.143Z,46.21
2023-02-27T12:20:22.121Z,46.09
2023-02-27T12:21:22.104Z,44.95
2023-02-27T12:22:22.320Z,44.53
2023-02-27T12:23:22.109Z,44.64
2023-02-27T12:24:22.076Z,44.62
2023-02-27T12:25:22.067Z,44.72
2023-02-27T12:26:22.059Z,44.10
2023-02-27T12:27:22.022Z,43.27
2023-02-27T12:28:22.065Z,43.66
2023-02-27T12:29:22.009Z,43.24
2023-02-27T12:30:21.982Z,43.14
2023-02-27T12:31:22.003Z,43.45
2023-02-27T12:32:21.989Z,43.24
2023-02-27T12:33:22.009Z,43.45
2023-02-27T12:34:21.974Z,43.66
2023-02-27T12:35:21.955Z,42.83
2023-02-27T12:36:21.934Z,43.35
2023-02-27T12:37:21.926Z,42.72
2023-02-27T12:38:21.918Z,42.52
2023-02-27T12:39:21.899Z,42.83
2023-02-27T12:40:22.191Z,43.04
2023-02-27T12:41:21.871Z,42.83
2023-02-27T12:42:21.866Z,43.14
2023-02-27T12:43:21.855Z,42.21
2023-02-27T12:44:21.836Z,42.41
2023-02-27T12:45:21.833Z,42.21
2023-02-27T12:46:21.844Z,42.83
2023-02-27T12:47:21.806Z,42.54
2023-02-27T12:48:21.798Z,42.33
2023-02-27T12:49:21.786Z,42.44
2023-02-27T12:50:21.765Z,42.96
2023-02-27T12:51:21.775Z,42.54
2023-02-27T12:52:21.847Z,42.72